createdAt,value
2018-12-13T00:00:51.616Z,-1.30
2018-12-13T00:03:19.129Z,-1.40
2018-12-13T00:05:46.627Z,-1.40
2018-12-13T00:08:14.096Z,-1.40
2018-12-13T00:10:41.593Z,-1.50
2018-12-13T00:13:09.067Z,-1.50
2018-12-13T00:15:36.492Z,-1.40
2018-12-13T00:18:04.051Z,-1.40
2018-12-13T00:20:31.524Z,-1.40
2018-12-13T00:22:58.961Z,-1.40
2018-12-13T00:25:26.426Z,-1.30
2018-12-13T00:27:53.927Z,-1.30
2018-12-13T00:30:21.382Z,-1.20
2018-12-13T00:32:48.796Z,-1.20
2018-12-13T00:35:16.277Z,-1.20
2018-12-13T00:37:43.848Z,-1.20
2018-12-13T00:40:11.347Z,-1.30
2018-12-13T00:42:38.923Z,-1.30
2018-12-13T00:45:06.666Z,-1.30
2018-12-13T00:47:34.166Z,-1.20
2018-12-13T00:50:01.700Z,-1.30
2018-12-13T00:52:29.163Z,-1.30
2018-12-13T00:54:56.600Z,-1.30
2018-12-13T00:57:24.176Z,-1.30
2018-12-13T00:59:51.634Z,-1.30
2018-12-13T01:02:19.104Z,-1.30
2018-12-13T01:04:46.572Z,-1.20
2018-12-13T01:07:13.993Z,-1.20
2018-12-13T01:09:41.465Z,-1.20
2018-12-13T01:12:08.940Z,-1.30
2018-12-13T01:14:36.658Z,-1.30
2018-12-13T01:17:04.128Z,-1.30
2018-12-13T01:19:31.654Z,-1.30
2018-12-13T01:21:59.128Z,-1.40
2018-12-13T01:24:26.617Z,-1.40
2018-12-13T01:26:54.167Z,-1.40
2018-12-13T01:29:21.689Z,-1.50
2018-12-13T01:31:49.180Z,-1.50
2018-12-13T01:34:16.652Z,-1.60
2018-12-13T01:36:44.146Z,-1.70
2018-12-13T01:39:11.617Z,-1.70
2018-12-13T01:41:39.128Z,-1.80
2018-12-13T01:44:06.601Z,-1.80
2018-12-13T01:46:34.093Z,-1.90
2018-12-13T01:49:01.573Z,-1.90
2018-12-13T01:51:29.063Z,-2.00
2018-12-13T01:56:29.538Z,-2.00
2018-12-13T01:58:57.051Z,-2.10
2018-12-13T02:01:24.516Z,-2.20
2018-12-13T02:03:51.981Z,-2.30
2018-12-13T02:06:19.414Z,-2.30
2018-12-13T02:08:46.871Z,-2.30
2018-12-13T02:11:14.329Z,-2.40
2018-12-13T02:13:41.760Z,-2.40
2018-12-13T02:16:09.281Z,-2.40
2018-12-13T02:18:36.752Z,-2.40
2018-12-13T02:21:04.215Z,-2.50
2018-12-13T02:23:31.740Z,-2.40
2018-12-13T02:25:59.228Z,-2.60
2018-12-13T02:28:26.681Z,-2.80
2018-12-13T02:30:54.109Z,-2.90
2018-12-13T02:33:21.631Z,-2.90
2018-12-13T02:35:49.105Z,-2.90
2018-12-13T02:38:16.574Z,-2.90
2018-12-13T02:40:44.036Z,-2.80
2018-12-13T02:43:11.514Z,-2.70
2018-12-13T02:45:38.977Z,-2.70
2018-12-13T02:48:06.453Z,-2.60
2018-12-13T02:50:33.903Z,-2.70
2018-12-13T02:53:01.430Z,-2.70
2018-12-13T02:55:28.983Z,-2.60
2018-12-13T02:57:56.532Z,-2.70
2018-12-13T03:00:23.951Z,-2.60
2018-12-13T03:02:51.603Z,-2.70
2018-12-13T03:05:19.074Z,-2.60
2018-12-13T03:07:46.519Z,-2.50
2018-12-13T03:10:14.021Z,-2.40
2018-12-13T03:12:41.501Z,-2.40
2018-12-13T03:15:08.945Z,-2.40
2018-12-13T03:17:36.466Z,-2.40
2018-12-13T03:20:05.239Z,-2.40
2018-12-13T03:22:32.785Z,-2.30
2018-12-13T03:25:00.248Z,-2.30
2018-12-13T03:27:27.894Z,-2.40
2018-12-13T03:29:55.363Z,-2.50
2018-12-13T03:32:22.814Z,-2.40
2018-12-13T03:34:50.318Z,-2.40
2018-12-13T03:37:20.723Z,-2.40
2018-12-13T03:39:47.705Z,-2.40
2018-12-13T03:42:15.143Z,-2.30
2018-12-13T03:44:42.633Z,-2.30
2018-12-13T03:47:10.129Z,-2.40
2018-12-13T03:49:37.584Z,-2.40
2018-12-13T03:52:05.098Z,-2.30
2018-12-13T03:54:32.586Z,-2.30
2018-12-13T03:57:00.028Z,-2.30
2018-12-13T03:59:27.457Z,-2.30
2018-12-13T04:01:54.959Z,-2.40
2018-12-13T04:04:22.491Z,-2.40
2018-12-13T04:06:49.950Z,-2.50
2018-12-13T04:09:17.450Z,-2.50
2018-12-13T04:11:44.902Z,-2.60
2018-12-13T04:14:12.358Z,-2.60
2018-12-13T04:16:39.852Z,-2.60
2018-12-13T04:19:07.363Z,-2.80
2018-12-13T04:21:34.847Z,-2.80
2018-12-13T04:24:02.378Z,-2.90
2018-12-13T04:26:29.862Z,-2.90
2018-12-13T04:28:57.305Z,-3.00
2018-12-13T04:31:24.805Z,-3.00
2018-12-13T04:33:52.273Z,-3.10
2018-12-13T04:36:19.690Z,-3.30
2018-12-13T04:38:47.185Z,-3.30
2018-12-13T04:41:14.621Z,-3.40
2018-12-13T04:43:42.096Z,-3.40
2018-12-13T04:46:09.579Z,-3.40
2018-12-13T04:48:37.057Z,-3.40
2018-12-13T04:51:04.530Z,-3.50
2018-12-13T04:53:31.997Z,-3.50
2018-12-13T04:55:59.460Z,-3.60
2018-12-13T04:58:26.912Z,-3.70
2018-12-13T05:00:54.418Z,-3.80
2018-12-13T05:03:21.892Z,-3.90
2018-12-13T05:05:49.344Z,-3.80
2018-12-13T05:08:16.820Z,-3.70
2018-12-13T05:10:50.434Z,-3.70
2018-12-13T05:13:18.320Z,-3.60
2018-12-13T05:15:45.780Z,-3.60
2018-12-13T05:18:13.517Z,-3.70
2018-12-13T05:20:40.962Z,-3.70
2018-12-13T05:23:08.474Z,-3.70
2018-12-13T05:25:36.070Z,-3.80
2018-12-13T05:28:03.631Z,-3.80
2018-12-13T05:30:31.090Z,-3.90
2018-12-13T05:32:58.581Z,-3.90
2018-12-13T05:35:26.078Z,-3.90
2018-12-13T05:37:53.582Z,-3.90
2018-12-13T05:40:21.012Z,-3.90
2018-12-13T05:42:48.540Z,-3.90
2018-12-13T05:45:15.992Z,-4.00
2018-12-13T05:47:43.460Z,-4.00
2018-12-13T05:50:10.972Z,-4.10
2018-12-13T05:52:38.453Z,-4.10
2018-12-13T05:55:05.919Z,-4.00
2018-12-13T05:57:33.369Z,-4.00
2018-12-13T06:00:00.798Z,-4.00
2018-12-13T06:02:28.278Z,-4.00
2018-12-13T06:04:56.060Z,-3.90
2018-12-13T06:07:23.528Z,-3.80
2018-12-13T06:09:50.989Z,-3.80
2018-12-13T06:12:18.476Z,-3.70
2018-12-13T06:14:45.918Z,-3.70
2018-12-13T06:17:13.368Z,-3.60
2018-12-13T06:19:40.889Z,-3.60
2018-12-13T06:22:08.385Z,-3.50
2018-12-13T06:24:35.953Z,-3.50
2018-12-13T06:27:03.515Z,-3.30
2018-12-13T06:29:31.000Z,-3.20
2018-12-13T06:31:58.504Z,-3.10
2018-12-13T06:34:26.025Z,-3.10
2018-12-13T06:36:53.552Z,-3.10
2018-12-13T06:39:21.048Z,-3.00
2018-12-13T06:41:48.525Z,-3.10
2018-12-13T06:44:16.016Z,-3.20
2018-12-13T06:46:43.511Z,-3.20
2018-12-13T06:49:10.972Z,-3.20
2018-12-13T06:51:38.416Z,-3.20
2018-12-13T06:54:05.907Z,-3.20
2018-12-13T06:56:33.408Z,-3.20
2018-12-13T06:59:00.890Z,-3.20
2018-12-13T07:01:28.315Z,-3.20
2018-12-13T07:03:55.796Z,-3.20
2018-12-13T07:06:23.270Z,-3.20
2018-12-13T07:08:50.742Z,-3.20
2018-12-13T07:11:18.219Z,-3.20
2018-12-13T07:13:45.679Z,-3.20
2018-12-13T07:16:13.151Z,-3.20
2018-12-13T07:18:40.695Z,-3.20
2018-12-13T07:21:08.572Z,-3.10
2018-12-13T07:23:36.040Z,-3.00
2018-12-13T07:26:03.608Z,-3.00
2018-12-13T07:28:31.055Z,-3.00
2018-12-13T07:30:58.524Z,-2.80
2018-12-13T07:33:26.020Z,-2.90
2018-12-13T07:35:53.468Z,-2.80
2018-12-13T07:38:20.927Z,-2.70
2018-12-13T07:40:48.494Z,-2.70
2018-12-13T07:43:16.058Z,-2.70
2018-12-13T07:45:43.496Z,-2.70
2018-12-13T07:48:10.963Z,-2.80
2018-12-13T07:50:38.434Z,-2.80
2018-12-13T07:53:05.906Z,-2.90
2018-12-13T07:55:33.362Z,-3.00
2018-12-13T07:58:00.868Z,-3.00
2018-12-13T08:00:28.288Z,-3.00
2018-12-13T08:02:55.794Z,-3.00
2018-12-13T08:05:23.313Z,-2.90
2018-12-13T08:07:50.747Z,-2.90
2018-12-13T08:10:18.208Z,-2.80
2018-12-13T08:12:45.700Z,-2.80
2018-12-13T08:15:13.203Z,-2.80
2018-12-13T08:17:40.647Z,-2.70
2018-12-13T08:20:08.272Z,-2.70
2018-12-13T08:22:35.767Z,-2.60
2018-12-13T08:25:03.857Z,-2.60
2018-12-13T08:27:32.340Z,-2.60
2018-12-13T08:29:59.817Z,-2.50
2018-12-13T08:32:27.319Z,-2.50
2018-12-13T08:34:54.799Z,-2.40
2018-12-13T08:37:22.214Z,-2.20
2018-12-13T08:39:49.719Z,-2.30
2018-12-13T08:42:17.196Z,-2.40
2018-12-13T08:44:44.658Z,-2.30
2018-12-13T08:47:37.342Z,-2.30
2018-12-13T08:50:05.169Z,-2.30
2018-12-13T08:52:32.630Z,-2.20
2018-12-13T08:55:00.339Z,-2.10
2018-12-13T08:57:27.782Z,-2.00
2018-12-13T08:59:55.208Z,-2.00
2018-12-13T09:02:22.755Z,-1.90
2018-12-13T09:04:50.170Z,-1.90
2018-12-13T09:07:17.842Z,-1.90
2018-12-13T09:09:45.344Z,-1.90
2018-12-13T09:12:12.777Z,-1.80
2018-12-13T09:14:40.210Z,-1.80
2018-12-13T09:17:07.673Z,-2.00
2018-12-13T09:19:35.138Z,-2.10
2018-12-13T09:22:02.704Z,-2.20
2018-12-13T09:24:30.168Z,-2.40
2018-12-13T09:26:57.630Z,-2.50
2018-12-13T09:29:25.111Z,-2.40
2018-12-13T09:31:52.660Z,-2.40
2018-12-13T09:34:20.077Z,-2.40
2018-12-13T09:36:47.531Z,-2.50
2018-12-13T09:39:15.620Z,-2.60
2018-12-13T09:41:43.078Z,-2.50
2018-12-13T09:44:12.586Z,-2.50
2018-12-13T09:46:40.081Z,-2.50
2018-12-13T09:49:07.498Z,-2.50
2018-12-13T09:51:34.995Z,-2.60
2018-12-13T09:54:03.656Z,-2.50
2018-12-13T09:56:31.479Z,-2.40
2018-12-13T09:58:58.967Z,-2.30
2018-12-13T10:01:26.503Z,-2.40
2018-12-13T10:03:53.999Z,-2.40
2018-12-13T10:06:21.485Z,-2.40
2018-12-13T10:08:48.940Z,-2.40
2018-12-13T10:11:16.487Z,-2.30
2018-12-13T10:13:43.962Z,-2.30
2018-12-13T10:16:11.412Z,-2.30
2018-12-13T10:18:38.864Z,-2.30
2018-12-13T10:21:06.330Z,-2.30
2018-12-13T10:23:33.834Z,-2.30
2018-12-13T10:26:01.339Z,-2.20
2018-12-13T10:28:28.757Z,-2.20
2018-12-13T10:30:56.244Z,-2.10
2018-12-13T10:33:24.011Z,-2.00
2018-12-13T10:35:51.452Z,-2.00
2018-12-13T10:38:19.001Z,-2.00
2018-12-13T10:40:46.465Z,-2.10
2018-12-13T10:43:13.913Z,-2.10
2018-12-13T10:45:41.864Z,-2.00
2018-12-13T10:48:09.313Z,-1.90
2018-12-13T10:50:36.842Z,-1.70
2018-12-13T10:53:04.292Z,-1.50
2018-12-13T10:55:31.775Z,-1.40
2018-12-13T10:57:59.385Z,-1.30
2018-12-13T11:00:32.512Z,-1.10
2018-12-13T11:03:17.629Z,-1.10
2018-12-13T11:05:45.130Z,-1.00
2018-12-13T11:08:12.569Z,-1.00
2018-12-13T11:10:40.133Z,-0.80
2018-12-13T11:13:07.613Z,-0.70
2018-12-13T11:15:35.205Z,-0.60
2018-12-13T11:18:02.651Z,-0.50
2018-12-13T11:20:30.232Z,-0.70
2018-12-13T11:22:57.686Z,-0.80
2018-12-13T11:25:29.250Z,-0.80
2018-12-13T11:31:12.632Z,-0.70
2018-12-13T11:33:40.089Z,-0.60
2018-12-13T11:36:07.629Z,-0.80
2018-12-13T11:38:35.074Z,-0.80
2018-12-13T11:41:02.608Z,-0.80
2018-12-13T11:43:30.127Z,-1.00
2018-12-13T11:45:57.577Z,-1.00
2018-12-13T11:48:25.109Z,-1.00
2018-12-13T11:50:52.555Z,-1.20
2018-12-13T11:53:20.004Z,-1.20
2018-12-13T11:55:47.541Z,-1.20
2018-12-13T11:58:15.092Z,-1.10
2018-12-13T12:00:42.592Z,-1.00
2018-12-13T12:03:10.130Z,-1.00
2018-12-13T12:05:37.701Z,-1.10
2018-12-13T12:08:05.273Z,-1.00
2018-12-13T12:10:32.829Z,-1.00
2018-12-13T12:13:00.289Z,-1.10
2018-12-13T12:15:27.721Z,-1.10
2018-12-13T12:17:55.214Z,-1.10
2018-12-13T12:20:22.653Z,-1.10
2018-12-13T12:22:50.158Z,-1.20
2018-12-13T12:25:17.752Z,-1.10
2018-12-13T12:27:45.176Z,-1.20
2018-12-13T12:30:12.659Z,-1.10
2018-12-13T12:32:40.142Z,-1.10
2018-12-13T12:35:07.661Z,-1.00
2018-12-13T12:37:35.263Z,-1.00
2018-12-13T12:40:03.409Z,-0.90
2018-12-13T12:42:30.874Z,-0.80
2018-12-13T12:44:58.373Z,-0.90
2018-12-13T12:47:25.863Z,-1.00
2018-12-13T12:49:53.397Z,-0.90
2018-12-13T12:52:20.962Z,-1.00
2018-12-13T12:54:48.369Z,-0.90
2018-12-13T12:57:15.845Z,-0.90
2018-12-13T12:59:43.356Z,-1.00
2018-12-13T13:02:10.856Z,-1.00
2018-12-13T13:04:38.493Z,-1.00
2018-12-13T13:07:06.069Z,-0.80
2018-12-13T13:09:33.561Z,-0.80
2018-12-13T13:12:00.970Z,-0.90
2018-12-13T13:14:28.490Z,-0.90
2018-12-13T13:16:55.972Z,-0.80
2018-12-13T13:19:23.388Z,-0.80
2018-12-13T13:21:51.075Z,-0.80
2018-12-13T13:24:18.500Z,-0.80
2018-12-13T13:26:45.986Z,-0.80
2018-12-13T13:29:13.460Z,-0.80
2018-12-13T13:31:40.947Z,-0.80
2018-12-13T13:34:08.388Z,-0.80
2018-12-13T13:36:35.865Z,-0.90
2018-12-13T13:39:05.862Z,-0.90
2018-12-13T13:41:33.392Z,-0.90
2018-12-13T13:44:00.874Z,-0.90
2018-12-13T13:46:28.376Z,-1.00
2018-12-13T13:48:56.005Z,-1.00
2018-12-13T13:51:23.531Z,-1.00
2018-12-13T13:53:51.015Z,-1.00
2018-12-13T13:56:18.547Z,-1.00
2018-12-13T13:58:46.077Z,-1.00
2018-12-13T14:01:13.520Z,-1.00
2018-12-13T14:03:40.986Z,-1.20
2018-12-13T14:06:08.461Z,-1.20
2018-12-13T14:08:35.951Z,-1.30
2018-12-13T14:11:03.470Z,-1.30
2018-12-13T14:13:30.927Z,-1.30
2018-12-13T14:15:58.398Z,-1.40
2018-12-13T14:18:25.906Z,-1.40
2018-12-13T14:20:53.563Z,-1.40
2018-12-13T14:23:21.039Z,-1.40
2018-12-13T14:25:48.550Z,-1.50
2018-12-13T14:28:16.078Z,-1.50
2018-12-13T14:30:43.500Z,-1.50
2018-12-13T14:33:11.197Z,-1.40
2018-12-13T14:35:38.689Z,-1.40
2018-12-13T14:38:06.116Z,-1.40
2018-12-13T14:40:33.605Z,-1.40
2018-12-13T14:43:01.188Z,-1.40
2018-12-13T14:45:28.800Z,-1.50
2018-12-13T14:47:56.373Z,-1.50
2018-12-13T14:50:23.840Z,-1.60
2018-12-13T14:52:51.407Z,-1.50
2018-12-13T14:55:18.836Z,-1.60
2018-12-13T14:57:46.349Z,-1.50
2018-12-13T15:00:13.889Z,-1.50
2018-12-13T15:02:41.577Z,-1.50
2018-12-13T15:05:09.618Z,-1.60
2018-12-13T15:07:37.154Z,-1.60
2018-12-13T15:10:04.673Z,-1.60
2018-12-13T15:12:32.222Z,-1.60
2018-12-13T15:14:59.730Z,-1.50
2018-12-13T15:17:27.408Z,-1.60
2018-12-13T15:19:55.128Z,-1.50
2018-12-13T15:22:22.592Z,-1.60
2018-12-13T15:24:50.033Z,-1.60
2018-12-13T15:27:17.514Z,-1.60
2018-12-13T15:29:44.968Z,-1.60
2018-12-13T15:32:12.483Z,-1.60
2018-12-13T15:34:39.963Z,-1.60
2018-12-13T15:37:07.405Z,-1.60
2018-12-13T15:39:35.067Z,-1.60
2018-12-13T15:42:02.657Z,-1.60
2018-12-13T15:44:30.117Z,-1.50
2018-12-13T15:46:57.586Z,-1.60
2018-12-13T15:49:25.796Z,-1.60
2018-12-13T15:51:53.268Z,-1.60
2018-12-13T15:54:20.775Z,-1.60
2018-12-13T15:56:48.284Z,-1.60
2018-12-13T15:59:16.729Z,-1.70
2018-12-13T16:01:44.233Z,-1.70
2018-12-13T16:04:12.172Z,-1.60
2018-12-13T16:06:39.702Z,-1.60
2018-12-13T16:09:07.415Z,-1.60
2018-12-13T16:11:34.874Z,-1.60
2018-12-13T16:14:02.445Z,-1.60
2018-12-13T16:16:30.023Z,-1.60
2018-12-13T16:18:57.570Z,-1.60
2018-12-13T16:21:25.230Z,-1.60
2018-12-13T16:23:53.045Z,-1.70
2018-12-13T16:26:20.774Z,-1.60
2018-12-13T16:28:48.250Z,-1.60
2018-12-13T16:31:15.740Z,-1.70
2018-12-13T16:33:43.296Z,-1.70
2018-12-13T16:36:10.850Z,-1.70
2018-12-13T16:38:38.407Z,-1.80
2018-12-13T16:41:05.927Z,-1.70
2018-12-13T16:43:33.760Z,-1.70
2018-12-13T16:46:01.428Z,-1.70
2018-12-13T16:48:28.907Z,-1.70
2018-12-13T16:50:56.389Z,-1.70
2018-12-13T16:53:23.848Z,-1.70
2018-12-13T16:55:51.379Z,-1.70
2018-12-13T16:58:18.929Z,-1.70
2018-12-13T17:00:46.422Z,-1.70
2018-12-13T17:03:25.782Z,-1.60
2018-12-13T17:05:53.263Z,-1.70
2018-12-13T17:08:20.733Z,-1.70
2018-12-13T17:10:48.722Z,-1.70
2018-12-13T17:13:16.192Z,-1.60
2018-12-13T17:15:43.712Z,-1.70
2018-12-13T17:18:11.252Z,-1.70
2018-12-13T17:20:38.953Z,-1.70
2018-12-13T17:23:06.439Z,-1.70
2018-12-13T17:25:33.973Z,-1.70
2018-12-13T17:28:01.393Z,-1.70
2018-12-13T17:30:29.180Z,-1.70
2018-12-13T17:32:56.900Z,-1.70
2018-12-13T17:35:24.396Z,-1.80
2018-12-13T17:37:51.821Z,-1.90
2018-12-13T17:40:23.009Z,-1.90
2018-12-13T17:42:48.812Z,-1.90
2018-12-13T17:45:16.375Z,-1.90
2018-12-13T17:47:44.312Z,-1.90
2018-12-13T17:50:11.899Z,-1.80
2018-12-13T17:52:39.401Z,-1.80
2018-12-13T17:55:08.635Z,-1.90
2018-12-13T17:57:36.115Z,-1.90
2018-12-13T18:00:07.326Z,-1.90
2018-12-13T18:02:35.238Z,-1.90
2018-12-13T18:05:02.875Z,-1.90
2018-12-13T18:07:30.292Z,-1.90
2018-12-13T18:09:57.770Z,-1.90
2018-12-13T18:12:25.213Z,-1.90
2018-12-13T18:14:52.748Z,-1.90
2018-12-13T18:17:20.216Z,-1.90
2018-12-13T18:19:47.683Z,-1.90
2018-12-13T18:22:15.134Z,-1.90
2018-12-13T18:24:42.696Z,-1.90
2018-12-13T18:27:10.141Z,-1.90
2018-12-13T18:29:37.638Z,-1.90
2018-12-13T18:32:05.260Z,-1.90
2018-12-13T18:34:32.704Z,-2.00
2018-12-13T18:37:00.266Z,-1.90
2018-12-13T18:39:27.865Z,-1.90
2018-12-13T18:41:55.333Z,-1.90
2018-12-13T18:44:22.831Z,-1.90
2018-12-13T18:46:50.302Z,-1.90
2018-12-13T18:49:17.977Z,-1.90
2018-12-13T18:51:45.459Z,-1.90
2018-12-13T18:54:12.916Z,-1.90
2018-12-13T18:56:40.522Z,-1.80
2018-12-13T18:59:07.980Z,-1.90
2018-12-13T19:01:35.539Z,-1.90
2018-12-13T19:04:03.098Z,-1.90
2018-12-13T19:06:30.610Z,-1.90
2018-12-13T19:08:58.107Z,-1.80
2018-12-13T19:11:25.582Z,-1.90
2018-12-13T19:13:53.021Z,-1.80
2018-12-13T19:16:20.480Z,-1.90
2018-12-13T19:18:47.977Z,-1.80
2018-12-13T19:21:15.447Z,-1.80
2018-12-13T19:23:42.896Z,-1.80
2018-12-13T19:26:10.373Z,-1.80
2018-12-13T19:28:37.865Z,-1.90
2018-12-13T19:31:05.335Z,-1.80
2018-12-13T19:33:32.831Z,-1.90
2018-12-13T19:36:00.297Z,-1.80
2018-12-13T19:38:27.810Z,-1.80
2018-12-13T19:40:55.224Z,-1.90
2018-12-13T19:43:23.664Z,-1.80
2018-12-13T19:45:51.112Z,-1.80
2018-12-13T19:48:18.573Z,-1.90
2018-12-13T19:50:46.309Z,-1.90
2018-12-13T19:53:14.086Z,-1.90
2018-12-13T19:55:41.552Z,-1.90
2018-12-13T19:58:09.028Z,-1.90
2018-12-13T20:00:40.202Z,-1.90
2018-12-13T20:03:07.777Z,-1.90
2018-12-13T20:05:35.221Z,-1.90
2018-12-13T20:08:02.701Z,-1.90
2018-12-13T20:10:30.170Z,-1.90
2018-12-13T20:12:57.725Z,-2.00
2018-12-13T20:15:25.212Z,-2.00
2018-12-13T20:17:52.661Z,-2.00
2018-12-13T20:20:20.084Z,-1.90
2018-12-13T20:22:47.720Z,-1.90
2018-12-13T20:25:15.240Z,-1.90
2018-12-13T20:27:42.706Z,-1.90
2018-12-13T20:30:10.322Z,-2.00
2018-12-13T20:32:37.790Z,-2.00
2018-12-13T20:35:05.592Z,-2.00
2018-12-13T20:37:33.112Z,-2.00
2018-12-13T20:40:00.569Z,-2.00
2018-12-13T20:42:28.049Z,-2.00
2018-12-13T20:44:55.564Z,-2.00
2018-12-13T20:47:23.000Z,-2.00
2018-12-13T20:49:50.433Z,-1.90
2018-12-13T20:52:17.935Z,-2.00
2018-12-13T20:54:45.353Z,-2.00
2018-12-13T20:57:12.838Z,-2.00
2018-12-13T20:59:40.571Z,-2.00
2018-12-13T21:02:08.023Z,-2.00
2018-12-13T21:04:35.465Z,-1.90
2018-12-13T21:07:08.701Z,-1.90
2018-12-13T21:09:36.196Z,-1.90
2018-12-13T21:12:03.713Z,-1.90
2018-12-13T21:14:31.252Z,-1.90
2018-12-13T21:17:00.164Z,-1.90
2018-12-13T21:19:27.756Z,-1.90
2018-12-13T21:21:55.220Z,-1.90
2018-12-13T21:24:22.705Z,-1.90
2018-12-13T21:26:50.172Z,-1.90
2018-12-13T21:29:17.729Z,-1.90
2018-12-13T21:31:45.144Z,-1.90
2018-12-13T21:34:12.597Z,-1.90
2018-12-13T21:36:40.288Z,-1.90
2018-12-13T21:39:07.738Z,-1.90
2018-12-13T21:41:35.197Z,-1.90
2018-12-13T21:44:02.690Z,-1.90
2018-12-13T21:46:30.185Z,-2.00
2018-12-13T21:48:57.857Z,-2.00
2018-12-13T21:51:25.355Z,-2.00
2018-12-13T21:53:52.908Z,-2.00
2018-12-13T21:56:20.378Z,-2.00
2018-12-13T21:58:47.880Z,-2.00
2018-12-13T22:01:15.385Z,-2.00
2018-12-13T22:03:42.862Z,-2.00
2018-12-13T22:06:10.302Z,-2.00
2018-12-13T22:08:37.755Z,-2.00
2018-12-13T22:11:05.200Z,-2.00
2018-12-13T22:13:32.696Z,-1.90
2018-12-13T22:16:00.139Z,-2.00
2018-12-13T22:18:27.561Z,-2.00
2018-12-13T22:20:55.051Z,-2.00
2018-12-13T22:23:22.476Z,-2.00
2018-12-13T22:25:49.911Z,-2.10
2018-12-13T22:28:17.390Z,-2.10
2018-12-13T22:30:44.859Z,-2.10
2018-12-13T22:33:12.315Z,-2.00
2018-12-13T22:35:39.778Z,-2.00
2018-12-13T22:38:07.236Z,-1.90
2018-12-13T22:40:34.689Z,-2.00
2018-12-13T22:43:02.278Z,-1.90
2018-12-13T22:45:29.764Z,-2.00
2018-12-13T22:47:57.201Z,-2.00
2018-12-13T22:50:24.691Z,-1.90
2018-12-13T22:52:52.157Z,-1.90
2018-12-13T22:55:19.701Z,-1.90
2018-12-13T22:57:47.160Z,-1.90
2018-12-13T23:00:14.684Z,-1.90
2018-12-13T23:02:42.189Z,-1.90
2018-12-13T23:05:09.729Z,-1.90
2018-12-13T23:07:37.167Z,-1.90
2018-12-13T23:10:04.677Z,-1.90
2018-12-13T23:12:32.302Z,-1.90
2018-12-13T23:14:59.990Z,-1.80
2018-12-13T23:17:27.465Z,-1.80
2018-12-13T23:19:55.043Z,-1.80
2018-12-13T23:22:22.518Z,-1.80
2018-12-13T23:24:49.955Z,-1.80
2018-12-13T23:27:17.449Z,-1.80
2018-12-13T23:29:44.936Z,-1.80
2018-12-13T23:32:12.495Z,-1.80
2018-12-13T23:34:39.937Z,-1.80
2018-12-13T23:37:07.402Z,-1.80
2018-12-13T23:39:34.878Z,-1.80
2018-12-13T23:42:02.444Z,-1.80
2018-12-13T23:44:29.895Z,-1.80
2018-12-13T23:46:57.363Z,-1.70
2018-12-13T23:49:24.873Z,-1.80
2018-12-13T23:51:52.312Z,-1.80
2018-12-13T23:54:19.773Z,-1.80
2018-12-13T23:56:47.261Z,-1.80
2018-12-13T23:59:14.744Z,-1.80
